Time;durP1;ratioP1;P1;durP2;ratioP2;P2;SDS_P1;SDS_P2;PMS_P1;PMS_P2;Temp;Humidity;BMP_temperature;BMP_pressure;BME280_temperature;BME280_humidity;BME280_pressure;Samples;Min_cycle;Max_cycle;Signal;HPM_P1;HPM_P2
2023/10/27 00:01:09;;;;;;;439.03;171.23;;;;;;;;;;5067663;28;20268;-66
2023/10/27 00:03:35;;;;;;;476.87;189.50;;;;;;;;;;5071755;28;20227;-66
2023/10/27 00:06:01;;;;;;;453.77;180.47;;;;;;;;;;5068117;28;20286;-66
2023/10/27 00:08:27;;;;;;;479.57;194.17;;;;;;;;;;5049399;28;20813;-66
2023/10/27 00:10:53;;;;;;;473.27;191.80;;;;;;;;;;5047107;28;20597;-66
2023/10/27 00:13:19;;;;;;;459.73;180.60;;;;;;;;;;5046265;28;20215;-68
2023/10/27 00:15:45;;;;;;;439.17;171.70;;;;;;;;;;5044233;28;20215;-66
2023/10/27 00:18:12;;;;;;;468.77;188.87;;;;;;;;;;5049974;28;20229;-66
2023/10/27 00:20:38;;;;;;;452.20;180.60;;;;;;;;;;5049910;28;20221;-66
2023/10/27 00:23:04;;;;;;;438.23;173.67;;;;;;;;;;5049868;28;20288;-66
2023/10/27 00:25:30;;;;;;;504.63;211.63;;;;;;;;;;5050735;28;20211;-66
2023/10/27 00:27:56;;;;;;;420.80;163.30;;;;;;;;;;5044590;28;20340;-66
2023/10/27 00:30:22;;;;;;;469.10;181.53;;;;;;;;;;5042109;28;20319;-66
2023/10/27 00:32:48;;;;;;;449.23;174.17;;;;;;;;;;5048680;28;20777;-67
2023/10/27 00:35:14;;;;;;;464.70;183.50;;;;;;;;;;5047921;28;20305;-66
2023/10/27 00:37:41;;;;;;;439.73;174.60;;;;;;;;;;5045449;28;20383;-66
2023/10/27 00:40:07;;;;;;;444.63;174.03;;;;;;;;;;5046223;28;20303;-66
2023/10/27 00:42:34;;;;;;;528.90;221.13;;;;;;;;;;5040214;28;20211;-66
2023/10/27 00:45:00;;;;;;;437.30;165.97;;;;;;;;;;5062094;28;20191;-66
2023/10/27 00:47:26;;;;;;;481.07;191.73;;;;;;;;;;5046352;28;20253;-65
2023/10/27 00:49:55;;;;;;;442.10;175.50;;;;;;;;;;5051522;28;20219;-66
2023/10/27 00:52:23;;;;;;;460.90;181.80;;;;;;;;;;5047590;28;20237;-66
2023/10/27 00:54:49;;;;;;;471.87;186.70;;;;;;;;;;5049125;28;20980;-68
2023/10/27 00:57:16;;;;;;;469.00;185.93;;;;;;;;;;5052473;28;20233;-66
2023/10/27 00:59:42;;;;;;;457.40;177.47;;;;;;;;;;5064813;28;20213;-67
2023/10/27 01:02:09;;;;;;;461.83;179.20;;;;;;;;;;5047786;28;20600;-66
2023/10/27 01:04:35;;;;;;;507.63;200.40;;;;;;;;;;5044949;28;21723;-66
2023/10/27 01:07:01;;;;;;;483.33;191.60;;;;;;;;;;5051035;28;20215;-66
2023/10/27 01:09:27;;;;;;;463.70;177.33;;;;;;;;;;5045699;28;20212;-67
2023/10/27 01:11:54;;;;;;;438.43;169.83;;;;;;;;;;5050527;28;20681;-66
2023/10/27 01:14:20;;;;;;;489.97;197.07;;;;;;;;;;5048682;28;20211;-66
2023/10/27 01:16:46;;;;;;;434.20;169.17;;;;;;;;;;5063448;28;20241;-67
2023/10/27 01:19:12;;;;;;;438.17;172.67;;;;;;;;;;5047317;28;20214;-67
2023/10/27 01:21:38;;;;;;;452.73;172.67;;;;;;;;;;5042902;28;20210;-66
2023/10/27 01:24:04;;;;;;;456.23;174.20;;;;;;;;;;5048946;28;20171;-66
2023/10/27 01:26:30;;;;;;;511.13;207.27;;;;;;;;;;5046047;28;20715;-66
2023/10/27 01:28:56;;;;;;;438.03;172.23;;;;;;;;;;5051564;28;20238;-66
2023/10/27 01:31:23;;;;;;;444.67;171.27;;;;;;;;;;5044267;28;20217;-66
2023/10/27 01:33:49;;;;;;;435.30;170.67;;;;;;;;;;5049820;28;20218;-66
2023/10/27 01:36:14;;;;;;;474.80;189.07;;;;;;;;;;5047296;28;20279;-66
2023/10/27 01:38:40;;;;;;;489.17;193.17;;;;;;;;;;5046936;28;20186;-66
2023/10/27 01:41:06;;;;;;;437.23;171.57;;;;;;;;;;5050143;28;20684;-67
2023/10/27 01:43:32;;;;;;;468.37;185.07;;;;;;;;;;5046480;28;20212;-67
2023/10/27 01:45:58;;;;;;;446.90;175.80;;;;;;;;;;5048084;28;20211;-66
2023/10/27 01:48:24;;;;;;;493.07;197.07;;;;;;;;;;5049540;28;20592;-67
2023/10/27 01:50:50;;;;;;;466.60;184.90;;;;;;;;;;5050954;28;20191;-67
2023/10/27 01:53:16;;;;;;;447.00;177.63;;;;;;;;;;5050098;28;20211;-67
2023/10/27 01:55:42;;;;;;;487.10;192.43;;;;;;;;;;5051799;28;20301;-67
2023/10/27 01:58:08;;;;;;;461.90;180.40;;;;;;;;;;5053798;28;20223;-66
2023/10/27 02:00:34;;;;;;;484.10;191.00;;;;;;;;;;5048185;28;20581;-67
2023/10/27 02:03:00;;;;;;;447.37;170.90;;;;;;;;;;5054952;28;20194;-66
2023/10/27 02:05:26;;;;;;;484.37;194.90;;;;;;;;;;5051542;28;20303;-67
2023/10/27 02:07:52;;;;;;;467.33;184.67;;;;;;;;;;5051086;28;20211;-67
2023/10/27 02:10:18;;;;;;;476.10;192.50;;;;;;;;;;5050109;28;20254;-66
2023/10/27 02:12:45;;;;;;;478.40;189.97;;;;;;;;;;5051122;28;20217;-67
2023/10/27 02:15:11;;;;;;;470.50;185.10;;;;;;;;;;5051283;28;20189;-66
2023/10/27 02:17:39;;;;;;;465.50;185.27;;;;;;;;;;5046732;28;20226;-66
2023/10/27 02:20:05;;;;;;;446.27;172.53;;;;;;;;;;5053549;28;20198;-67
2023/10/27 02:22:31;;;;;;;505.53;204.87;;;;;;;;;;5048703;28;20333;-67
2023/10/27 02:24:57;;;;;;;442.13;173.33;;;;;;;;;;5049001;28;20709;-67
2023/10/27 02:27:23;;;;;;;458.03;184.07;;;;;;;;;;5064443;28;20454;-67
2023/10/27 02:29:49;;;;;;;430.40;167.87;;;;;;;;;;5045506;28;20191;-67
2023/10/27 02:32:14;;;;;;;475.90;182.80;;;;;;;;;;5045430;28;20231;-67
2023/10/27 02:34:40;;;;;;;487.13;191.53;;;;;;;;;;5066332;28;20249;-66
2023/10/27 02:37:06;;;;;;;461.30;180.10;;;;;;;;;;5065027;28;20295;-67
2023/10/27 02:39:32;;;;;;;494.57;192.67;;;;;;;;;;5047364;28;20210;-67
2023/10/27 02:41:58;;;;;;;449.23;170.47;;;;;;;;;;5055642;28;20182;-66
2023/10/27 02:44:24;;;;;;;452.33;175.27;;;;;;;;;;5045298;28;20257;-67
2023/10/27 02:46:50;;;;;;;454.23;175.93;;;;;;;;;;5049902;28;20254;-67
2023/10/27 02:49:16;;;;;;;465.20;179.33;;;;;;;;;;5048921;28;20300;-66
2023/10/27 02:51:42;;;;;;;479.20;186.00;;;;;;;;;;5049761;28;20694;-67
2023/10/27 02:54:08;;;;;;;452.57;174.43;;;;;;;;;;5051378;28;20286;-67
2023/10/27 02:56:34;;;;;;;477.03;187.37;;;;;;;;;;5050369;28;20264;-67
2023/10/27 02:59:00;;;;;;;431.77;161.93;;;;;;;;;;5052434;28;20207;-67
2023/10/27 03:01:26;;;;;;;445.93;169.23;;;;;;;;;;5048525;28;20735;-67
2023/10/27 03:03:52;;;;;;;470.47;187.17;;;;;;;;;;5049456;28;20695;-66
2023/10/27 03:06:18;;;;;;;488.73;194.47;;;;;;;;;;5050741;28;20207;-66
2023/10/27 03:08:44;;;;;;;471.93;187.43;;;;;;;;;;5050527;28;20265;-67
2023/10/27 03:11:10;;;;;;;467.37;181.33;;;;;;;;;;5051686;28;20237;-66
2023/10/27 03:13:36;;;;;;;475.40;185.00;;;;;;;;;;5050487;28;20317;-67
2023/10/27 03:16:03;;;;;;;467.37;176.80;;;;;;;;;;5046888;28;20215;-66
2023/10/27 03:18:29;;;;;;;428.57;165.77;;;;;;;;;;5064393;28;20219;-66
2023/10/27 03:20:55;;;;;;;421.57;163.27;;;;;;;;;;5053635;28;20209;-66
2023/10/27 03:23:22;;;;;;;446.23;171.37;;;;;;;;;;5048270;28;20261;-66
2023/10/27 03:25:48;;;;;;;467.00;184.27;;;;;;;;;;5049026;28;20217;-66
2023/10/27 03:28:14;;;;;;;465.93;180.63;;;;;;;;;;5049242;28;20204;-66
2023/10/27 03:30:40;;;;;;;449.47;176.43;;;;;;;;;;5047787;28;20361;-66
2023/10/27 03:33:06;;;;;;;433.93;172.83;;;;;;;;;;5051487;28;20254;-66
2023/10/27 03:35:31;;;;;;;449.40;177.77;;;;;;;;;;5048222;28;20186;-66
2023/10/27 03:37:59;;;;;;;452.53;177.33;;;;;;;;;;5041967;28;20223;-66
2023/10/27 03:40:25;;;;;;;450.87;173.80;;;;;;;;;;5059123;28;20218;-66
2023/10/27 03:42:51;;;;;;;500.97;196.10;;;;;;;;;;5067324;28;20218;-66
2023/10/27 03:45:17;;;;;;;529.57;216.97;;;;;;;;;;5064530;28;20350;-66
2023/10/27 03:47:43;;;;;;;503.73;195.27;;;;;;;;;;5068534;28;20961;-67
2023/10/27 03:50:09;;;;;;;455.17;171.57;;;;;;;;;;5067888;28;20331;-67
2023/10/27 03:52:35;;;;;;;459.07;174.23;;;;;;;;;;5070711;28;20295;-67
2023/10/27 03:55:02;;;;;;;436.30;162.30;;;;;;;;;;5068404;28;20214;-67
2023/10/27 03:57:27;;;;;;;539.13;215.13;;;;;;;;;;5065634;28;20231;-67
2023/10/27 03:59:53;;;;;;;429.07;164.80;;;;;;;;;;5067010;28;20651;-67
2023/10/27 04:02:19;;;;;;;433.23;165.30;;;;;;;;;;5070317;28;20271;-67
2023/10/27 04:04:45;;;;;;;476.53;191.67;;;;;;;;;;5067951;28;20264;-67
2023/10/27 04:07:11;;;;;;;484.73;190.77;;;;;;;;;;5069984;28;20355;-67
2023/10/27 04:09:37;;;;;;;475.90;182.87;;;;;;;;;;5069197;28;20274;-67
2023/10/27 04:12:03;;;;;;;443.93;169.60;;;;;;;;;;5070581;28;20188;-67
2023/10/27 04:14:29;;;;;;;501.70;202.10;;;;;;;;;;5062421;28;20671;-67
2023/10/27 04:16:55;;;;;;;469.77;181.67;;;;;;;;;;5066616;28;20226;-67
2023/10/27 04:19:21;;;;;;;463.37;180.73;;;;;;;;;;5067502;28;20210;-67
2023/10/27 04:21:47;;;;;;;495.47;201.87;;;;;;;;;;5068240;28;20217;-66
2023/10/27 04:24:12;;;;;;;458.80;176.53;;;;;;;;;;5075216;28;20189;-67
2023/10/27 04:26:39;;;;;;;458.77;180.97;;;;;;;;;;5068421;28;20202;-67
2023/10/27 04:29:06;;;;;;;453.93;172.17;;;;;;;;;;5066647;28;20256;-66
2023/10/27 04:31:32;;;;;;;438.37;169.07;;;;;;;;;;5065893;28;20215;-66
2023/10/27 04:33:58;;;;;;;452.10;171.67;;;;;;;;;;5066528;28;20214;-66
2023/10/27 04:36:24;;;;;;;446.57;170.70;;;;;;;;;;5067065;28;21053;-67
2023/10/27 04:38:51;;;;;;;479.47;183.57;;;;;;;;;;5072700;28;20182;-66
2023/10/27 04:41:18;;;;;;;436.13;167.73;;;;;;;;;;5070387;28;20439;-66
2023/10/27 04:43:44;;;;;;;470.03;187.30;;;;;;;;;;5066481;28;20358;-67
2023/10/27 04:46:10;;;;;;;482.37;188.57;;;;;;;;;;5062901;28;20221;-66
2023/10/27 04:48:36;;;;;;;463.70;178.63;;;;;;;;;;5063834;28;20722;-67
2023/10/27 04:51:03;;;;;;;451.23;173.80;;;;;;;;;;5074996;28;20274;-66
2023/10/27 04:53:30;;;;;;;438.37;166.00;;;;;;;;;;5065882;28;20650;-67
2023/10/27 04:55:56;;;;;;;472.43;183.87;;;;;;;;;;5070451;28;20221;-66
2023/10/27 04:58:22;;;;;;;454.57;174.70;;;;;;;;;;5068124;28;20207;-66
2023/10/27 05:00:48;;;;;;;443.87;173.07;;;;;;;;;;5068332;28;20309;-66
2023/10/27 05:03:14;;;;;;;478.07;187.33;;;;;;;;;;5070372;28;20628;-66
2023/10/27 05:05:40;;;;;;;493.97;200.37;;;;;;;;;;5067007;28;20182;-66
2023/10/27 05:08:05;;;;;;;482.47;187.17;;;;;;;;;;5066996;28;20238;-65
2023/10/27 05:10:31;;;;;;;414.73;155.90;;;;;;;;;;5065176;28;20480;-66
2023/10/27 05:12:58;;;;;;;441.07;170.10;;;;;;;;;;5063284;28;20234;-67
2023/10/27 05:15:25;;;;;;;469.03;184.80;;;;;;;;;;5067056;28;20206;-67
2023/10/27 05:17:51;;;;;;;481.43;191.20;;;;;;;;;;5067443;28;20275;-66
2023/10/27 05:20:16;;;;;;;514.80;206.93;;;;;;;;;;5068557;28;20688;-66
2023/10/27 05:22:42;;;;;;;520.50;216.80;;;;;;;;;;5072434;28;20275;-66
2023/10/27 05:25:08;;;;;;;444.23;170.17;;;;;;;;;;5068727;28;20211;-67
2023/10/27 05:27:34;;;;;;;509.10;206.77;;;;;;;;;;5064966;28;20321;-68
2023/10/27 05:30:01;;;;;;;458.33;179.57;;;;;;;;;;5041529;28;20597;-67
2023/10/27 05:32:27;;;;;;;518.97;220.70;;;;;;;;;;5053991;28;20720;-67
2023/10/27 05:34:53;;;;;;;534.40;216.67;;;;;;;;;;5063802;28;20257;-68
2023/10/27 05:37:21;;;;;;;491.23;198.93;;;;;;;;;;5063544;28;20214;-71
2023/10/27 05:39:47;;;;;;;509.63;202.13;;;;;;;;;;5069975;28;20302;-71
2023/10/27 05:42:12;;;;;;;490.50;200.00;;;;;;;;;;5060994;28;20277;-78
2023/10/27 05:44:41;;;;;;;514.37;207.83;;;;;;;;;;5061143;28;20181;-70
2023/10/27 05:47:07;;;;;;;485.23;195.47;;;;;;;;;;5062582;28;20276;-71
2023/10/27 05:49:32;;;;;;;440.60;177.13;;;;;;;;;;5061453;28;20210;-70
2023/10/27 05:52:02;;;;;;;394.40;152.77;;;;;;;;;;5066602;28;20218;-72
2023/10/27 05:54:29;;;;;;;443.77;171.77;;;;;;;;;;5070335;28;20737;-78
2023/10/27 05:56:54;;;;;;;434.47;169.93;;;;;;;;;;5077076;28;20647;-77
2023/10/27 05:59:20;;;;;;;502.87;200.53;;;;;;;;;;5073064;28;20308;-77
2023/10/27 06:01:48;;;;;;;454.20;179.23;;;;;;;;;;5074262;28;20202;-80
2023/10/27 06:04:14;;;;;;;445.90;174.07;;;;;;;;;;5078638;28;20637;-74
2023/10/27 06:06:40;;;;;;;444.73;173.77;;;;;;;;;;5068554;28;20218;-75
2023/10/27 06:09:06;;;;;;;431.03;168.77;;;;;;;;;;5078638;28;20549;-75
2023/10/27 06:11:32;;;;;;;422.63;164.40;;;;;;;;;;5066924;28;20278;-75
2023/10/27 06:13:58;;;;;;;519.10;222.53;;;;;;;;;;5066984;28;20595;-76
2023/10/27 06:16:24;;;;;;;507.73;203.23;;;;;;;;;;5055126;28;20364;-76
2023/10/27 06:18:52;;;;;;;453.57;173.50;;;;;;;;;;5066417;28;20222;-65
2023/10/27 06:21:18;;;;;;;452.47;178.63;;;;;;;;;;5069077;28;20174;-65
2023/10/27 06:23:44;;;;;;;466.23;183.60;;;;;;;;;;5078269;28;20170;-65
2023/10/27 06:26:10;;;;;;;449.30;174.23;;;;;;;;;;5081839;28;20214;-75
2023/10/27 06:28:36;;;;;;;450.67;177.43;;;;;;;;;;5076574;28;20222;-75
2023/10/27 06:31:05;;;;;;;462.53;181.57;;;;;;;;;;5068792;28;20209;-74
2023/10/27 06:33:32;;;;;;;446.40;171.80;;;;;;;;;;5093353;28;20210;-75
2023/10/27 06:35:59;;;;;;;452.87;171.00;;;;;;;;;;5079378;28;20197;-76
2023/10/27 06:38:25;;;;;;;442.63;170.37;;;;;;;;;;5070859;28;20337;-66
2023/10/27 06:40:51;;;;;;;464.03;181.10;;;;;;;;;;5075671;28;20289;-67
2023/10/27 06:43:17;;;;;;;484.93;192.40;;;;;;;;;;5075936;28;20249;-70
2023/10/27 06:45:43;;;;;;;476.23;186.70;;;;;;;;;;5068446;28;20400;-71
2023/10/27 06:48:09;;;;;;;441.57;172.67;;;;;;;;;;5063387;28;20193;-72
2023/10/27 06:50:35;;;;;;;451.17;175.37;;;;;;;;;;5074382;28;20265;-75
2023/10/27 06:53:01;;;;;;;453.37;171.53;;;;;;;;;;5067401;28;20697;-74
2023/10/27 06:55:27;;;;;;;514.37;207.53;;;;;;;;;;5065816;28;20305;-75
2023/10/27 06:57:53;;;;;;;494.37;197.80;;;;;;;;;;5068559;28;20225;-76
2023/10/27 07:00:19;;;;;;;478.57;185.73;;;;;;;;;;5060189;28;20190;-76
2023/10/27 07:02:45;;;;;;;437.07;168.63;;;;;;;;;;5065209;28;20270;-76
2023/10/27 07:05:13;;;;;;;438.03;170.50;;;;;;;;;;5068910;28;20297;-76
2023/10/27 07:07:39;;;;;;;540.27;224.80;;;;;;;;;;5058032;28;20280;-76
2023/10/27 07:10:05;;;;;;;431.40;164.63;;;;;;;;;;5057540;28;20210;-76
2023/10/27 07:12:31;;;;;;;487.67;189.10;;;;;;;;;;5069747;28;20650;-75
2023/10/27 07:14:57;;;;;;;492.53;196.00;;;;;;;;;;5069434;28;20298;-75
2023/10/27 07:17:23;;;;;;;498.37;194.77;;;;;;;;;;5059276;28;20286;-77
2023/10/27 07:19:49;;;;;;;500.87;199.80;;;;;;;;;;5067819;28;20202;-76
2023/10/27 07:22:17;;;;;;;561.67;229.07;;;;;;;;;;5061699;28;20762;-76
2023/10/27 07:24:43;;;;;;;476.00;189.50;;;;;;;;;;5065073;28;20659;-76
2023/10/27 07:27:09;;;;;;;472.43;187.13;;;;;;;;;;5068455;28;20280;-77
2023/10/27 07:29:35;;;;;;;515.63;206.37;;;;;;;;;;5055436;28;20192;-76
2023/10/27 07:32:01;;;;;;;477.87;186.27;;;;;;;;;;5065858;28;20228;-76
2023/10/27 07:34:27;;;;;;;492.10;192.33;;;;;;;;;;5057640;28;20215;-71
2023/10/27 07:36:53;;;;;;;579.73;233.90;;;;;;;;;;5065081;28;20331;-74
2023/10/27 07:39:19;;;;;;;504.87;197.93;;;;;;;;;;5063706;28;21007;-75
2023/10/27 07:41:45;;;;;;;477.17;184.90;;;;;;;;;;5063205;28;20190;-75
2023/10/27 07:44:11;;;;;;;544.17;221.90;;;;;;;;;;5064934;28;20203;-75
2023/10/27 07:46:37;;;;;;;477.13;185.53;;;;;;;;;;5061725;28;20720;-75
2023/10/27 07:49:03;;;;;;;449.23;177.63;;;;;;;;;;5056323;28;20256;-75
2023/10/27 07:51:29;;;;;;;437.07;164.63;;;;;;;;;;5070448;28;20218;-76
2023/10/27 07:53:56;;;;;;;503.20;198.03;;;;;;;;;;5062119;28;20875;-76
2023/10/27 07:56:22;;;;;;;431.53;167.23;;;;;;;;;;5062300;28;20238;-76
2023/10/27 07:58:48;;;;;;;479.73;188.10;;;;;;;;;;5063213;28;20245;-76
2023/10/27 08:01:15;;;;;;;472.43;181.73;;;;;;;;;;5062479;28;20707;-75
2023/10/27 08:03:41;;;;;;;497.00;196.60;;;;;;;;;;5063463;28;20211;-75
2023/10/27 08:06:07;;;;;;;514.23;205.53;;;;;;;;;;5066859;28;20217;-75
2023/10/27 08:08:37;;;;;;;537.17;220.13;;;;;;;;;;5064522;28;20656;-74
2023/10/27 08:11:04;;;;;;;530.20;211.00;;;;;;;;;;5051888;28;20218;-75
2023/10/27 08:13:30;;;;;;;455.57;174.23;;;;;;;;;;5066392;28;20738;-75
2023/10/27 08:15:56;;;;;;;531.40;214.73;;;;;;;;;;5054463;28;20232;-75
2023/10/27 08:18:22;;;;;;;462.23;174.23;;;;;;;;;;5059291;28;20589;-76
2023/10/27 08:20:50;;;;;;;467.17;183.03;;;;;;;;;;5049646;28;20176;-75
2023/10/27 08:23:16;;;;;;;468.27;187.47;;;;;;;;;;5052536;28;20238;-75
2023/10/27 08:25:42;;;;;;;427.23;161.87;;;;;;;;;;5045386;28;20306;-75
2023/10/27 08:28:08;;;;;;;470.43;184.83;;;;;;;;;;5041387;28;20215;-75
2023/10/27 08:30:34;;;;;;;496.30;192.27;;;;;;;;;;5047739;28;20287;-74
2023/10/27 08:33:00;;;;;;;471.73;183.00;;;;;;;;;;5071192;28;20186;-73
2023/10/27 08:35:26;;;;;;;511.43;208.83;;;;;;;;;;5064561;28;20208;-73
2023/10/27 08:37:51;;;;;;;484.23;189.83;;;;;;;;;;5063424;28;20379;-74
2023/10/27 08:40:17;;;;;;;501.87;205.07;;;;;;;;;;5062970;28;20455;-73
2023/10/27 08:42:49;;;;;;;490.60;193.93;;;;;;;;;;5061562;28;20980;-74
2023/10/27 08:45:15;;;;;;;486.80;193.73;;;;;;;;;;5059281;28;20185;-73
2023/10/27 08:47:42;;;;;;;497.47;206.07;;;;;;;;;;5063298;28;20229;-74
2023/10/27 08:50:08;;;;;;;497.57;199.07;;;;;;;;;;5061173;28;20210;-73
2023/10/27 08:52:34;;;;;;;494.83;195.00;;;;;;;;;;5069834;28;20256;-72
2023/10/27 08:55:07;;;;;;;497.37;200.47;;;;;;;;;;5066181;28;20612;-73
2023/10/27 08:57:34;;;;;;;525.87;213.97;;;;;;;;;;5072657;28;20537;-73
2023/10/27 08:59:59;;;;;;;494.73;199.87;;;;;;;;;;5070449;28;20193;-73
2023/10/27 09:02:29;;;;;;;518.03;213.13;;;;;;;;;;5067241;28;20213;-72
2023/10/27 09:05:05;;;;;;;469.67;181.97;;;;;;;;;;5074364;28;20225;-73
2023/10/27 09:07:32;;;;;;;464.63;180.53;;;;;;;;;;5067113;28;20655;-73
2023/10/27 09:09:58;;;;;;;521.27;206.93;;;;;;;;;;5064974;28;20221;-73
2023/10/27 09:12:26;;;;;;;488.90;200.57;;;;;;;;;;5070689;28;20213;-73
2023/10/27 09:14:59;;;;;;;515.07;210.00;;;;;;;;;;5065525;28;20205;-74
2023/10/27 09:17:25;;;;;;;463.97;173.70;;;;;;;;;;5071019;28;20214;-73
2023/10/27 09:20:04;;;;;;;503.20;200.60;;;;;;;;;;5067828;28;20207;-73
2023/10/27 09:22:30;;;;;;;495.43;196.93;;;;;;;;;;5060820;28;20338;-73
2023/10/27 09:25:12;;;;;;;496.37;195.33;;;;;;;;;;5062691;28;20214;-75
2023/10/27 09:27:43;;;;;;;485.00;189.40;;;;;;;;;;5062170;28;20249;-74
2023/10/27 09:30:09;;;;;;;487.60;189.13;;;;;;;;;;5072842;28;20182;-74
2023/10/27 09:32:35;;;;;;;464.17;177.73;;;;;;;;;;5069795;28;20185;-75
2023/10/27 09:35:09;;;;;;;485.23;191.90;;;;;;;;;;5069345;28;20211;-75
2023/10/27 09:37:37;;;;;;;456.13;174.17;;;;;;;;;;5058517;28;20218;-74
2023/10/27 09:40:04;;;;;;;541.07;215.50;;;;;;;;;;5067521;28;20287;-75
2023/10/27 09:42:31;;;;;;;517.60;204.03;;;;;;;;;;5070820;28;20248;-74
2023/10/27 09:45:03;;;;;;;539.23;218.77;;;;;;;;;;5067963;28;20191;-75
2023/10/27 09:47:39;;;;;;;429.80;162.67;;;;;;;;;;5056253;28;20225;-74
2023/10/27 09:50:06;;;;;;;538.10;224.07;;;;;;;;;;5047649;28;20579;-75
2023/10/27 09:52:33;;;;;;;496.73;198.50;;;;;;;;;;5051108;28;20239;-74
2023/10/27 09:54:59;;;;;;;507.40;203.83;;;;;;;;;;5064569;28;20260;-74
2023/10/27 09:57:26;;;;;;;541.83;216.70;;;;;;;;;;5046389;28;21249;-74
2023/10/27 09:59:54;;;;;;;496.00;198.67;;;;;;;;;;5052234;28;20198;-74
2023/10/27 10:02:22;;;;;;;497.40;195.70;;;;;;;;;;5046209;28;20554;-75
2023/10/27 10:04:51;;;;;;;460.20;180.83;;;;;;;;;;5047194;28;20742;-75
2023/10/27 10:07:30;;;;;;;478.73;185.20;;;;;;;;;;5054489;28;20254;-74
2023/10/27 10:09:56;;;;;;;507.00;204.90;;;;;;;;;;5049276;28;20276;-75
2023/10/27 10:12:22;;;;;;;535.90;217.10;;;;;;;;;;5048815;28;20223;-74
2023/10/27 10:14:49;;;;;;;481.00;185.40;;;;;;;;;;5051605;28;20184;-74
2023/10/27 10:17:34;;;;;;;451.17;168.57;;;;;;;;;;5048559;28;20711;-74
2023/10/27 10:20:00;;;;;;;499.73;192.07;;;;;;;;;;5045743;28;21250;-74
2023/10/27 10:22:38;;;;;;;466.47;177.77;;;;;;;;;;5049344;28;20761;-74
2023/10/27 10:25:19;;;;;;;521.53;210.67;;;;;;;;;;5044218;28;20261;-74
2023/10/27 10:28:04;;;;;;;466.20;180.63;;;;;;;;;;5051773;28;20280;-74
2023/10/27 10:30:30;;;;;;;473.33;179.67;;;;;;;;;;5061786;28;20301;-73
2023/10/27 10:33:23;;;;;;;512.57;201.83;;;;;;;;;;5047040;28;20195;-72
2023/10/27 10:35:50;;;;;;;493.07;196.53;;;;;;;;;;5033590;28;20204;-73
2023/10/27 10:38:22;;;;;;;478.63;192.43;;;;;;;;;;5068536;28;20217;-75
2023/10/27 10:40:52;;;;;;;447.23;167.33;;;;;;;;;;5044673;28;20203;-72
2023/10/27 10:43:19;;;;;;;488.97;196.00;;;;;;;;;;5047840;28;20774;-75
2023/10/27 10:45:50;;;;;;;473.97;181.40;;;;;;;;;;5057670;28;20285;-77
2023/10/27 10:48:16;;;;;;;470.03;181.20;;;;;;;;;;5065461;28;20187;-73
2023/10/27 10:50:42;;;;;;;513.20;202.43;;;;;;;;;;5047181;28;20709;-74
2023/10/27 10:53:16;;;;;;;511.93;211.30;;;;;;;;;;5046474;28;20711;-77
2023/10/27 10:55:45;;;;;;;517.73;206.33;;;;;;;;;;5046213;28;20218;-75
2023/10/27 10:58:11;;;;;;;532.87;219.40;;;;;;;;;;5045965;28;20925;-75
2023/10/27 11:00:37;;;;;;;444.40;166.63;;;;;;;;;;5062499;28;20226;-75
2023/10/27 11:03:07;;;;;;;500.53;199.00;;;;;;;;;;5047013;28;20187;-73
2023/10/27 11:05:33;;;;;;;476.27;187.20;;;;;;;;;;5066796;28;20387;-74
2023/10/27 11:07:59;;;;;;;467.30;180.40;;;;;;;;;;5043852;28;20311;-74
2023/10/27 11:10:25;;;;;;;492.50;192.00;;;;;;;;;;5049298;28;20265;-74
2023/10/27 11:12:52;;;;;;;467.87;183.70;;;;;;;;;;5046845;28;20211;-75
2023/10/27 11:15:37;;;;;;;499.67;194.20;;;;;;;;;;5044927;28;20609;-75
2023/10/27 11:18:06;;;;;;;504.70;198.13;;;;;;;;;;5045728;28;20581;-74
2023/10/27 11:20:35;;;;;;;520.10;207.43;;;;;;;;;;5041270;28;20661;-75
2023/10/27 11:23:12;;;;;;;496.27;195.50;;;;;;;;;;5080851;28;20309;-76
2023/10/27 11:25:38;;;;;;;486.10;187.80;;;;;;;;;;5051402;28;20210;-75
2023/10/27 11:28:40;;;;;;;555.73;231.80;;;;;;;;;;5043680;28;20310;-75
2023/10/27 11:31:11;;;;;;;498.97;196.70;;;;;;;;;;4997041;28;20219;-75
2023/10/27 11:33:59;;;;;;;478.27;184.37;;;;;;;;;;5036157;28;20628;-75
2023/10/27 11:36:26;;;;;;;498.97;202.73;;;;;;;;;;5045908;28;20720;-76
2023/10/27 11:38:52;;;;;;;444.60;170.70;;;;;;;;;;5055702;28;20261;-76
2023/10/27 11:41:19;;;;;;;449.03;173.93;;;;;;;;;;5054905;28;20210;-75
2023/10/27 11:43:45;;;;;;;488.73;193.40;;;;;;;;;;5041039;28;20306;-76
2023/10/27 11:46:15;;;;;;;512.83;206.77;;;;;;;;;;5050214;28;20260;-76
2023/10/27 11:48:41;;;;;;;472.57;180.93;;;;;;;;;;5047063;28;20218;-75
2023/10/27 11:51:07;;;;;;;508.97;206.30;;;;;;;;;;5045164;28;20188;-75
2023/10/27 11:53:36;;;;;;;479.87;189.90;;;;;;;;;;5041511;28;20175;-76
2023/10/27 11:56:05;;;;;;;507.80;205.03;;;;;;;;;;5047347;28;20226;-74
2023/10/27 11:58:31;;;;;;;460.17;181.23;;;;;;;;;;5042929;28;20306;-74
2023/10/27 12:00:57;;;;;;;499.03;201.07;;;;;;;;;;5060449;28;20280;-73
2023/10/27 12:03:23;;;;;;;483.37;189.40;;;;;;;;;;5058420;28;20272;-75
2023/10/27 12:05:49;;;;;;;471.90;189.60;;;;;;;;;;5045766;28;20194;-75
2023/10/27 12:08:15;;;;;;;489.43;192.20;;;;;;;;;;5051036;28;20206;-74
2023/10/27 12:10:41;;;;;;;463.70;174.67;;;;;;;;;;5082008;28;20308;-75
2023/10/27 12:13:07;;;;;;;497.87;200.17;;;;;;;;;;5050860;28;20277;-74
2023/10/27 12:15:34;;;;;;;462.33;182.00;;;;;;;;;;5050164;28;20232;-66
2023/10/27 12:18:01;;;;;;;480.30;194.60;;;;;;;;;;5052652;28;20207;-66
2023/10/27 12:20:27;;;;;;;551.67;233.93;;;;;;;;;;5051816;28;20214;-66
2023/10/27 12:22:55;;;;;;;435.60;170.93;;;;;;;;;;5064627;28;20208;-66
2023/10/27 12:25:21;;;;;;;492.97;199.50;;;;;;;;;;5054717;28;20907;-73
2023/10/27 12:27:47;;;;;;;477.43;188.57;;;;;;;;;;5065654;28;21707;-76
2023/10/27 12:30:13;;;;;;;500.37;198.93;;;;;;;;;;5057884;28;20174;-75
2023/10/27 12:32:40;;;;;;;533.40;222.13;;;;;;;;;;5067907;28;20263;-75
2023/10/27 12:35:07;;;;;;;440.23;169.40;;;;;;;;;;5070592;28;20360;-77
2023/10/27 12:37:33;;;;;;;468.30;179.87;;;;;;;;;;5044481;28;20227;-75
2023/10/27 12:39:59;;;;;;;499.77;200.23;;;;;;;;;;5057408;28;20875;-76
2023/10/27 12:42:25;;;;;;;518.33;204.57;;;;;;;;;;5063871;28;20211;-75
2023/10/27 12:44:51;;;;;;;476.03;185.10;;;;;;;;;;5043080;28;20199;-75
2023/10/27 12:47:17;;;;;;;517.40;209.23;;;;;;;;;;5046775;28;20223;-76
2023/10/27 12:49:43;;;;;;;462.63;182.23;;;;;;;;;;5054066;28;20693;-75
2023/10/27 12:52:09;;;;;;;476.23;187.47;;;;;;;;;;5065713;28;20297;-75
2023/10/27 12:54:36;;;;;;;460.97;179.80;;;;;;;;;;5067535;28;20292;-76
2023/10/27 12:57:02;;;;;;;540.43;215.53;;;;;;;;;;5051068;28;20217;-77
2023/10/27 12:59:28;;;;;;;561.23;231.83;;;;;;;;;;5059901;28;20223;-77
2023/10/27 13:01:54;;;;;;;466.73;179.33;;;;;;;;;;5061659;28;20221;-77
2023/10/27 13:04:20;;;;;;;519.27;204.93;;;;;;;;;;5072611;28;20234;-77
2023/10/27 13:06:46;;;;;;;461.50;173.37;;;;;;;;;;5069674;28;20222;-77
2023/10/27 13:09:12;;;;;;;495.00;197.93;;;;;;;;;;5077319;28;20186;-77
2023/10/27 13:11:38;;;;;;;427.07;164.10;;;;;;;;;;5076070;28;20265;-77
2023/10/27 13:14:04;;;;;;;478.00;188.57;;;;;;;;;;5086078;28;20218;-77
2023/10/27 13:16:30;;;;;;;451.60;172.27;;;;;;;;;;5082802;28;20222;-77
2023/10/27 13:18:56;;;;;;;461.63;175.50;;;;;;;;;;5064340;28;20287;-73
2023/10/27 13:21:22;;;;;;;478.70;184.37;;;;;;;;;;5060190;28;20301;-78
2023/10/27 13:23:49;;;;;;;436.93;167.47;;;;;;;;;;5073864;28;20273;-78
2023/10/27 13:26:15;;;;;;;501.97;197.90;;;;;;;;;;5066480;28;20225;-76
2023/10/27 13:28:40;;;;;;;410.70;158.53;;;;;;;;;;5067957;28;20207;-76
2023/10/27 13:31:06;;;;;;;463.47;181.20;;;;;;;;;;5070993;28;20218;-77
2023/10/27 13:33:33;;;;;;;451.87;173.63;;;;;;;;;;5088072;28;20710;-76
2023/10/27 13:36:00;;;;;;;456.57;177.07;;;;;;;;;;5079369;28;20552;-77
2023/10/27 13:38:27;;;;;;;456.83;170.10;;;;;;;;;;5075091;28;20751;-76
2023/10/27 13:43:30;;;;;;;449.20;176.53;;;;;;;;;;5059122;27;1235885;-48
2023/10/27 13:46:02;;;;;;;453.70;178.73;;;;;;;;;;5082688;28;20317;-48
2023/10/27 13:48:28;;;;;;;426.27;163.13;;;;;;;;;;5083569;28;20331;-48
2023/10/27 13:50:55;;;;;;;414.67;164.93;;;;;;;;;;5084085;28;20479;-48
2023/10/27 13:53:21;;;;;;;417.80;167.43;;;;;;;;;;5083441;28;20755;-48